createdAt,value
2022-10-18T00:07:12.891Z,18
2022-10-18T00:36:35.544Z,17.7
2022-10-18T01:05:56.193Z,16.6
2022-10-18T01:35:08.532Z,16.3
2022-10-18T02:04:19.663Z,16.4
2022-10-18T02:33:40.687Z,16.5
2022-10-18T03:02:51.922Z,16.4
2022-10-18T03:32:11.094Z,16.3
2022-10-18T04:01:27.544Z,15.8
2022-10-18T04:30:41.196Z,15.4
2022-10-18T04:59:52.176Z,15.3
2022-10-18T05:29:09.097Z,15.3
2022-10-18T05:58:03.574Z,15.4
2022-10-18T06:27:18.575Z,15.5
2022-10-18T06:56:34.709Z,15.6
2022-10-18T07:25:39.545Z,15.9
2022-10-18T07:55:00.703Z,16.5
2022-10-18T08:24:10.663Z,17
2022-10-18T08:53:40.282Z,18.3
2022-10-18T09:22:31.388Z,19.6
2022-10-18T09:51:34.931Z,20.4
2022-10-18T10:20:56.079Z,20.5
2022-10-18T10:50:23.386Z,24
2022-10-18T11:19:44.955Z,25
2022-10-18T11:49:12.582Z,24.6
2022-10-18T12:18:22.756Z,24.4
2022-10-18T12:47:37.582Z,23.3
2022-10-18T13:16:51.865Z,24.5
2022-10-18T13:46:14.826Z,25.1
2022-10-18T14:15:28.790Z,24.4
2022-10-18T14:44:56.597Z,24.2
2022-10-18T15:13:41.934Z,23.1
2022-10-18T15:43:02.582Z,22.4
2022-10-18T16:12:23.481Z,22.5
2022-10-18T16:41:43.433Z,21.3
2022-10-18T17:10:59.295Z,20.4
2022-10-18T17:40:19.173Z,19.7
2022-10-18T18:09:39.771Z,19.1
2022-10-18T18:38:58.264Z,18.6
2022-10-18T19:07:45.505Z,18.1
2022-10-18T19:37:02.957Z,17.3
2022-10-18T20:06:23.165Z,16.8
2022-10-18T20:35:40.177Z,16.3
2022-10-18T21:04:51.768Z,15.8
2022-10-18T21:34:12.876Z,15.5
2022-10-18T22:03:32.136Z,15.1
2022-10-18T22:32:48.025Z,14.9
2022-10-18T23:02:08.874Z,14.6
2022-10-18T23:31:26.979Z,14.4
